Time;durP1;ratioP1;P1;durP2;ratioP2;P2;SDS_P1;SDS_P2;PMS_P1;PMS_P2;Temp;Humidity;BMP_temperature;BMP_pressure;BME280_temperature;BME280_humidity;BME280_pressure;Samples;Min_cycle;Max_cycle;Signal;HPM_P1;HPM_P2
2021/09/13 00:00:32;;;;;;;11.70;9.53;;;;;;;23.32;55.24;100533.45;1784064;79;21032;-49
2021/09/13 00:02:59;;;;;;;12.75;9.88;;;;;;;23.31;55.25;100531.25;1796913;79;21049;-48
2021/09/13 00:05:26;;;;;;;14.03;9.63;;;;;;;23.31;55.26;100532.64;1796330;78;21861;-45
2021/09/13 00:07:53;;;;;;;11.73;9.58;;;;;;;23.32;55.30;100536.23;1789582;79;21595;-46
2021/09/13 00:10:19;;;;;;;13.13;9.90;;;;;;;23.31;55.31;100535.98;1796002;79;21033;-48
2021/09/13 00:12:45;;;;;;;14.80;10.78;;;;;;;23.31;55.31;100540.97;1794075;79;21519;-47
2021/09/13 00:15:11;;;;;;;14.60;10.35;;;;;;;23.30;55.32;100540.72;1794620;79;23250;-48
2021/09/13 00:17:38;;;;;;;15.78;10.23;;;;;;;23.31;55.35;100541.53;1797644;79;21409;-45
2021/09/13 00:20:06;;;;;;;11.30;9.35;;;;;;;23.29;55.38;100537.73;1793748;79;21097;-49
2021/09/13 00:22:32;;;;;;;11.50;9.43;;;;;;;23.30;55.38;100540.72;1791360;79;21050;-46
2021/09/13 00:24:59;;;;;;;12.95;10.05;;;;;;;23.29;55.42;100534.96;1795137;79;21085;-45
2021/09/13 00:27:25;;;;;;;12.53;9.25;;;;;;;23.29;55.43;100538.31;1795873;79;21949;-47
2021/09/13 00:29:51;;;;;;;13.53;9.93;;;;;;;23.28;55.46;100534.72;1786953;78;21023;-47
2021/09/13 00:32:17;;;;;;;11.15;8.93;;;;;;;23.29;55.47;100540.52;1790598;78;21494;-46
2021/09/13 00:34:43;;;;;;;12.78;9.40;;;;;;;23.28;55.48;100536.11;1795374;79;21043;-46
2021/09/13 00:37:10;;;;;;;12.05;9.10;;;;;;;23.29;55.49;100539.70;1790995;79;21529;-47
2021/09/13 00:39:36;;;;;;;12.50;9.48;;;;;;;23.28;55.51;100532.52;1792762;79;21499;-47
2021/09/13 00:42:04;;;;;;;13.13;9.28;;;;;;;23.27;55.54;100526.72;1788611;79;21647;-46
2021/09/13 00:44:30;;;;;;;13.43;9.78;;;;;;;23.27;55.54;100530.31;1791614;78;21393;-48
2021/09/13 00:46:59;;;;;;;14.15;9.68;;;;;;;23.27;55.56;100530.89;1791269;79;21046;-47
2021/09/13 00:49:25;;;;;;;11.30;8.90;;;;;;;23.27;55.58;100526.15;1786118;79;21204;-46
2021/09/13 00:51:52;;;;;;;11.93;9.23;;;;;;;23.26;55.61;100530.07;1792266;78;23107;-48
2021/09/13 00:54:18;;;;;;;11.80;9.18;;;;;;;23.26;55.62;100530.64;1791222;78;21113;-46
2021/09/13 00:56:44;;;;;;;12.25;8.78;;;;;;;23.26;55.62;100530.64;1792184;79;21445;-45
2021/09/13 00:59:11;;;;;;;11.28;8.88;;;;;;;23.25;55.64;100527.08;1794396;79;21056;-47
2021/09/13 01:01:38;;;;;;;11.43;8.95;;;;;;;23.25;55.65;100529.05;1792264;79;21663;-46
2021/09/13 01:04:04;;;;;;;11.05;8.85;;;;;;;23.25;55.64;100527.66;1795393;78;21710;-47
2021/09/13 01:06:30;;;;;;;12.13;9.05;;;;;;;23.23;55.66;100530.19;1789981;79;21043;-47
2021/09/13 01:08:57;;;;;;;11.33;8.60;;;;;;;23.24;55.66;100529.62;1789916;79;21434;-48
2021/09/13 01:11:23;;;;;;;12.10;8.63;;;;;;;23.24;55.67;100535.17;1789699;79;21571;-45
2021/09/13 01:13:49;;;;;;;12.60;9.00;;;;;;;23.22;55.67;100531.34;1794107;79;21333;-45
2021/09/13 01:16:15;;;;;;;12.28;8.80;;;;;;;23.22;55.68;100532.72;1787850;79;21233;-45
2021/09/13 01:18:41;;;;;;;11.22;8.40;;;;;;;23.23;55.70;100527.98;1790950;78;20995;-48
2021/09/13 01:21:07;;;;;;;10.93;8.23;;;;;;;23.23;55.71;100532.16;1796668;79;20882;-46
2021/09/13 01:23:35;;;;;;;10.63;8.43;;;;;;;23.22;55.72;100533.30;1792216;79;21520;-46
2021/09/13 01:26:03;;;;;;;9.10;7.62;;;;;;;23.22;55.73;100530.52;1788545;79;21027;-46
2021/09/13 01:28:29;;;;;;;11.55;7.83;;;;;;;23.22;55.74;100533.30;1796435;79;23193;-48
2021/09/13 01:30:55;;;;;;;10.23;7.90;;;;;;;23.22;55.75;100533.30;1797164;79;21166;-48
2021/09/13 01:33:22;;;;;;;9.88;7.62;;;;;;;23.22;55.77;100533.30;1793345;78;21402;-48
2021/09/13 01:35:49;;;;;;;10.55;7.95;;;;;;;23.21;55.79;100533.87;1791188;79;21018;-48
2021/09/13 01:38:22;;;;;;;10.68;8.40;;;;;;;23.21;55.81;100540.02;1799216;79;21125;-47
2021/09/13 01:40:50;;;;;;;10.80;7.80;;;;;;;23.21;55.82;100533.09;1772664;79;20927;-47
2021/09/13 01:43:16;;;;;;;10.88;8.05;;;;;;;23.20;55.83;100534.23;1793092;79;21109;-46
2021/09/13 01:45:42;;;;;;;11.38;7.75;;;;;;;23.20;55.86;100536.44;1800387;79;20988;-48
2021/09/13 01:48:09;;;;;;;10.78;6.72;;;;;;;23.19;55.89;100538.97;1790690;79;21132;-48
2021/09/13 01:50:35;;;;;;;8.85;6.55;;;;;;;23.23;55.95;100540.48;1791902;78;21015;-45
2021/09/13 01:53:01;;;;;;;9.80;6.58;;;;;;;23.26;56.09;100537.01;1795411;79;21409;-46
2021/09/13 01:55:28;;;;;;;8.70;6.72;;;;;;;23.30;56.26;100538.55;1775268;79;21007;-49
2021/09/13 01:57:54;;;;;;;8.38;6.40;;;;;;;23.35;56.38;100548.03;1798918;78;21151;-49
2021/09/13 02:00:20;;;;;;;8.00;6.45;;;;;;;23.37;56.48;100539.61;1798199;79;20877;-46
2021/09/13 02:02:46;;;;;;;9.03;7.05;;;;;;;23.42;56.52;100545.52;1796714;78;20931;-46
2021/09/13 02:05:12;;;;;;;9.65;7.08;;;;;;;23.44;56.47;100538.49;1790187;78;21103;-47
2021/09/13 02:07:38;;;;;;;8.63;6.75;;;;;;;23.47;56.41;100543.35;1800258;78;21035;-46
2021/09/13 02:10:06;;;;;;;8.48;6.85;;;;;;;23.50;56.35;100543.26;1791169;79;21038;-47
2021/09/13 02:12:32;;;;;;;8.60;6.53;;;;;;;23.51;56.26;100544.28;1795747;78;21054;-46
2021/09/13 02:14:58;;;;;;;9.18;6.40;;;;;;;23.52;56.22;100542.33;1793737;78;21646;-48
2021/09/13 02:17:24;;;;;;;10.43;6.72;;;;;;;23.52;56.15;100545.91;1795637;79;21226;-47
2021/09/13 02:19:50;;;;;;;7.12;6.25;;;;;;;23.51;56.13;100538.73;1799654;79;21026;-47
2021/09/13 02:22:17;;;;;;;9.50;7.40;;;;;;;23.51;56.11;100544.86;1793238;78;21754;-48
2021/09/13 02:24:43;;;;;;;10.00;6.83;;;;;;;23.49;56.09;100546.61;1797836;79;21011;-46
2021/09/13 02:27:09;;;;;;;9.08;6.17;;;;;;;23.48;56.08;100542.20;1799316;78;20986;-47
2021/09/13 02:29:35;;;;;;;9.23;5.97;;;;;;;23.47;56.09;100542.53;1798385;78;22119;-48
2021/09/13 02:32:02;;;;;;;7.62;5.72;;;;;;;23.45;56.10;100549.02;1790828;78;21001;-47
2021/09/13 02:34:28;;;;;;;10.00;6.67;;;;;;;23.44;56.12;100544.62;1796579;79;21015;-51
2021/09/13 02:36:54;;;;;;;8.05;6.35;;;;;;;23.42;56.14;100539.39;1795600;77;21023;-47
2021/09/13 02:39:21;;;;;;;8.58;6.55;;;;;;;23.40;56.15;100542.27;1764947;79;21460;-48
2021/09/13 02:41:47;;;;;;;8.30;6.30;;;;;;;23.37;56.17;100539.61;1745195;78;21097;-45
2021/09/13 02:44:13;;;;;;;8.20;6.85;;;;;;;23.37;56.22;100541.57;1767773;78;21104;-46
2021/09/13 02:46:39;;;;;;;7.60;6.20;;;;;;;23.35;56.24;100543.29;1773752;78;20904;-45
2021/09/13 02:49:06;;;;;;;8.10;6.62;;;;;;;23.35;56.25;100543.86;1771548;78;20996;-46
2021/09/13 02:51:32;;;;;;;8.25;6.10;;;;;;;23.32;56.28;100546.76;1776250;79;20998;-45
2021/09/13 02:53:58;;;;;;;8.23;6.30;;;;;;;23.31;56.30;100546.52;1773790;79;21018;-46
2021/09/13 02:56:24;;;;;;;8.33;6.00;;;;;;;23.30;56.34;100551.83;1767646;79;20904;-48
2021/09/13 02:58:50;;;;;;;8.85;6.42;;;;;;;23.29;56.38;100548.84;1765205;79;21138;-45
2021/09/13 03:01:16;;;;;;;8.38;6.05;;;;;;;23.28;56.39;100551.38;1773074;79;21054;-48
2021/09/13 03:03:42;;;;;;;8.15;6.05;;;;;;;23.26;56.42;100548.11;1763332;79;21016;-45
2021/09/13 03:06:09;;;;;;;8.33;6.08;;;;;;;23.24;56.45;100549.05;1764422;79;22087;-48
2021/09/13 03:08:36;;;;;;;8.03;6.58;;;;;;;23.23;56.48;100546.84;1766616;79;21546;-45
2021/09/13 03:11:03;;;;;;;8.43;5.90;;;;;;;23.22;56.50;100549.37;1768914;79;21092;-49
2021/09/13 03:13:30;;;;;;;9.23;5.78;;;;;;;23.21;56.54;100553.30;1762374;79;21664;-46
2021/09/13 03:15:56;;;;;;;8.60;5.70;;;;;;;23.20;56.56;100544.77;1768958;79;21011;-45
2021/09/13 03:18:23;;;;;;;7.37;5.87;;;;;;;23.20;56.56;100554.47;1770642;78;21111;-46
2021/09/13 03:20:52;;;;;;;8.25;5.42;;;;;;;23.22;56.62;100556.31;1794318;79;20999;-46
2021/09/13 03:23:18;;;;;;;6.92;4.97;;;;;;;23.23;56.71;100548.23;1795333;78;21058;-47
2021/09/13 03:25:44;;;;;;;8.50;5.30;;;;;;;23.30;56.85;100549.66;1737423;80;21023;-45
2021/09/13 03:28:11;;;;;;;8.35;5.67;;;;;;;23.31;56.96;100554.84;1779878;78;21113;-46
2021/09/13 03:30:37;;;;;;;9.05;5.62;;;;;;;23.34;57.01;100555.54;1778159;79;21099;-45
2021/09/13 03:33:03;;;;;;;7.25;5.70;;;;;;;23.36;56.97;100555.20;1772662;79;21132;-47
2021/09/13 03:35:29;;;;;;;8.05;5.87;;;;;;;23.38;56.92;100555.09;1767754;78;21067;-48
2021/09/13 03:37:55;;;;;;;8.95;5.53;;;;;;;23.40;56.86;100556.96;1767293;78;21025;-46
2021/09/13 03:40:22;;;;;;;7.83;5.67;;;;;;;23.42;56.80;100556.63;1772358;79;21162;-46
2021/09/13 03:42:48;;;;;;;7.95;5.90;;;;;;;23.41;56.71;100557.20;1756279;79;21944;-48
2021/09/13 03:45:17;;;;;;;7.25;5.60;;;;;;;23.42;56.68;100563.57;1794337;79;21011;-47
2021/09/13 03:47:48;;;;;;;8.33;6.15;;;;;;;23.42;56.62;100563.57;1791282;78;21006;-46
2021/09/13 03:50:13;;;;;;;8.03;5.87;;;;;;;23.40;56.58;100557.53;1797297;78;21497;-45
2021/09/13 03:52:39;;;;;;;8.78;5.53;;;;;;;23.39;56.56;100560.06;1790400;79;21059;-45
2021/09/13 03:55:07;;;;;;;7.55;5.62;;;;;;;23.38;56.57;100562.63;1793538;79;21002;-45
2021/09/13 03:57:33;;;;;;;8.38;5.85;;;;;;;23.37;56.57;100565.98;1797392;78;21013;-46
2021/09/13 03:59:59;;;;;;;6.25;5.20;;;;;;;23.35;56.56;100568.27;1792508;79;21054;-46
2021/09/13 04:02:27;;;;;;;6.95;5.80;;;;;;;23.34;56.57;100568.64;1793791;79;21212;-46
2021/09/13 04:04:53;;;;;;;7.28;6.00;;;;;;;23.32;56.57;100569.54;1793965;77;21022;-47
2021/09/13 04:07:24;;;;;;;6.78;5.03;;;;;;;23.31;56.58;100572.07;1793578;79;20982;-49
2021/09/13 04:09:57;;;;;;;7.22;5.65;;;;;;;23.29;56.61;100569.66;1800362;77;21021;-46
2021/09/13 04:12:18;;;;;;;7.55;5.83;;;;;;;23.27;56.62;100567.78;1786422;79;21046;-44
2021/09/13 04:14:44;;;;;;;6.90;5.12;;;;;;;23.25;56.65;100569.30;1794451;78;21197;-44
2021/09/13 04:17:10;;;;;;;7.20;5.50;;;;;;;23.24;56.66;100571.25;1794729;79;20899;-45
2021/09/13 04:19:36;;;;;;;7.62;5.85;;;;;;;23.22;56.67;100577.13;1795081;78;21102;-45
2021/09/13 04:22:03;;;;;;;7.03;5.45;;;;;;;23.22;56.71;100576.31;1790860;79;21226;-45
2021/09/13 04:24:29;;;;;;;6.58;5.22;;;;;;;23.20;56.71;100580.03;1791930;77;21485;-45
2021/09/13 04:26:55;;;;;;;6.58;5.22;;;;;;;23.19;56.75;100585.34;1794791;77;21879;-46
2021/09/13 04:29:21;;;;;;;5.78;4.95;;;;;;;23.18;56.77;100582.31;1793819;77;21063;-45
2021/09/13 04:31:47;;;;;;;6.80;5.05;;;;;;;23.17;56.79;100580.69;1796782;78;21404;-45
2021/09/13 04:34:13;;;;;;;7.62;5.62;;;;;;;23.16;56.80;100580.47;1790928;79;20875;-46
2021/09/13 04:36:39;;;;;;;7.85;5.83;;;;;;;23.15;56.82;100578.27;1792931;79;21121;-46
2021/09/13 04:39:05;;;;;;;7.45;5.62;;;;;;;23.14;56.84;100580.80;1791381;77;21049;-45
2021/09/13 04:41:32;;;;;;;7.15;5.10;;;;;;;23.14;56.84;100585.53;1788435;79;21532;-45
2021/09/13 04:43:58;;;;;;;6.92;5.08;;;;;;;23.17;56.88;100586.23;1792520;78;21825;-45
2021/09/13 04:46:24;;;;;;;10.38;4.80;;;;;;;23.19;56.98;100585.34;1793686;78;21019;-46
2021/09/13 04:48:51;;;;;;;7.00;5.15;;;;;;;23.23;57.13;100583.50;1797180;79;21013;-44
2021/09/13 04:51:17;;;;;;;75.80;21.48;;;;;;;23.26;57.22;100583.38;1799162;78;21402;-45
2021/09/13 04:53:43;;;;;;;100.72;28.87;;;;;;;23.28;57.32;100589.42;1794054;77;21034;-49
2021/09/13 04:56:10;;;;;;;90.12;22.93;;;;;;;23.31;57.31;100579.83;1793451;77;21152;-46
2021/09/13 04:58:36;;;;;;;196.68;63.52;;;;;;;23.34;57.30;100584.69;1795869;78;21081;-47
2021/09/13 05:01:02;;;;;;;153.40;41.37;;;;;;;23.37;57.26;100584.60;1790888;77;20973;-47
2021/09/13 05:03:28;;;;;;;115.70;32.90;;;;;;;23.39;57.24;100586.44;1795017;77;21594;-45
2021/09/13 05:05:55;;;;;;;85.40;23.80;;;;;;;23.40;57.22;100588.08;1798131;79;21032;-46
2021/09/13 05:08:21;;;;;;;181.78;51.00;;;;;;;23.41;57.20;100594.69;1786445;78;21471;-50
2021/09/13 05:10:48;;;;;;;104.30;27.27;;;;;;;23.41;57.18;100589.13;1795658;77;21006;-48
2021/09/13 05:13:14;;;;;;;44.13;11.85;;;;;;;23.42;57.20;100594.11;1791536;77;21008;-49
2021/09/13 05:15:44;;;;;;;204.95;54.85;;;;;;;23.41;57.20;100592.48;1791645;79;21482;-49
2021/09/13 05:18:10;;;;;;;37.33;12.93;;;;;;;23.41;57.23;100594.69;1793262;78;21062;-46
2021/09/13 05:20:36;;;;;;;34.00;12.37;;;;;;;23.39;57.27;100587.26;1793951;79;21585;-46
2021/09/13 05:23:03;;;;;;;21.85;8.73;;;;;;;23.39;57.29;100590.03;1804169;79;21038;-46
2021/09/13 05:25:29;;;;;;;13.65;6.95;;;;;;;23.38;57.32;100589.79;1787492;79;21065;-48
2021/09/13 05:27:55;;;;;;;12.35;6.60;;;;;;;23.37;57.35;100593.75;1789915;78;20985;-46
2021/09/13 05:30:21;;;;;;;13.53;6.58;;;;;;;23.36;57.38;100597.67;1791089;79;20880;-50
2021/09/13 05:32:47;;;;;;;9.98;6.20;;;;;;;23.35;57.39;100590.48;1794587;79;21070;-45
2021/09/13 05:35:13;;;;;;;15.63;6.60;;;;;;;23.33;57.42;100594.19;1796407;78;21009;-47
2021/09/13 05:37:40;;;;;;;13.72;6.58;;;;;;;23.33;57.43;100596.97;1798604;77;32499;-48
2021/09/13 05:40:09;;;;;;;15.78;6.70;;;;;;;23.34;57.48;100591.62;1789446;79;21614;-48
2021/09/13 05:42:35;;;;;;;12.47;6.20;;;;;;;23.37;57.59;100592.36;1794404;78;21449;-47
2021/09/13 05:45:02;;;;;;;14.07;6.37;;;;;;;23.39;57.74;100592.81;1770364;78;21721;-49
2021/09/13 05:47:28;;;;;;;14.25;7.97;;;;;;;23.43;57.87;100597.09;1770793;78;21114;-46
2021/09/13 05:49:55;;;;;;;14.98;7.62;;;;;;;23.45;57.92;100600.39;1776814;78;21009;-47
2021/09/13 05:52:21;;;;;;;12.28;7.00;;;;;;;23.48;57.90;100601.09;1788064;78;21511;-46
2021/09/13 05:54:47;;;;;;;12.58;6.92;;;;;;;23.50;57.85;100602.38;1765288;78;21001;-46
2021/09/13 05:57:13;;;;;;;11.30;6.22;;;;;;;23.52;57.79;100603.41;1769851;78;21055;-46
2021/09/13 05:59:39;;;;;;;13.85;7.08;;;;;;;23.53;57.74;100602.27;1769192;79;21065;-48
2021/09/13 06:02:06;;;;;;;13.35;6.37;;;;;;;23.53;57.68;100600.30;1778429;79;21067;-47
2021/09/13 06:04:33;;;;;;;15.13;7.28;;;;;;;23.53;57.65;100607.25;1769356;79;21039;-53
2021/09/13 06:06:59;;;;;;;12.45;6.10;;;;;;;23.52;57.60;100600.06;1775771;79;21545;-47
2021/09/13 06:09:25;;;;;;;12.50;6.67;;;;;;;23.52;57.56;100605.62;1773436;79;21222;-47
2021/09/13 06:11:52;;;;;;;9.90;6.45;;;;;;;23.50;57.57;100602.96;1800432;79;21038;-48
2021/09/13 06:14:18;;;;;;;12.47;6.20;;;;;;;23.50;57.55;100609.90;1795904;78;21504;-47
2021/09/13 06:16:44;;;;;;;9.88;5.67;;;;;;;23.48;57.53;100610.80;1790164;79;21058;-47
2021/09/13 06:19:10;;;;;;;11.08;6.25;;;;;;;23.46;57.56;100604.80;1787833;79;21058;-46
2021/09/13 06:21:37;;;;;;;9.93;6.15;;;;;;;23.45;57.56;100610.92;1795876;78;21558;-47
2021/09/13 06:24:04;;;;;;;8.70;5.70;;;;;;;23.44;57.57;100612.06;1791079;79;21090;-47
2021/09/13 06:26:30;;;;;;;10.23;6.22;;;;;;;23.42;57.58;100615.75;1793995;79;21026;-49
2021/09/13 06:28:56;;;;;;;9.75;5.92;;;;;;;23.41;57.59;100618.28;1798495;79;21121;-47
2021/09/13 06:31:23;;;;;;;9.25;5.58;;;;;;;23.39;57.58;100619.19;1797896;78;21736;-49
2021/09/13 06:33:49;;;;;;;8.85;5.85;;;;;;;23.38;57.60;100620.33;1793735;79;21070;-47
2021/09/13 06:36:15;;;;;;;10.45;5.72;;;;;;;23.36;57.62;100617.67;1795386;79;21465;-49
2021/09/13 06:38:43;;;;;;;10.63;6.17;;;;;;;23.35;57.61;100623.80;1794636;79;20874;-48
2021/09/13 06:41:09;;;;;;;11.65;5.85;;;;;;;23.37;57.63;100620.69;1787601;78;21466;-47
2021/09/13 06:43:35;;;;;;;9.60;5.60;;;;;;;23.40;57.70;100625.55;1796944;78;21156;-49
2021/09/13 06:46:23;;;;;;;9.38;5.05;;;;;;;23.41;57.82;100623.02;1794631;79;21207;-50
2021/09/13 06:48:48;;;;;;;11.57;5.28;;;;;;;23.43;57.88;100625.71;1795919;79;21099;-51
2021/09/13 06:51:14;;;;;;;10.35;5.35;;;;;;;23.47;57.88;100631.39;1797048;78;21398;-47
2021/09/13 06:53:40;;;;;;;11.70;5.83;;;;;;;23.48;57.85;100632.45;1795777;78;21771;-49
2021/09/13 06:56:06;;;;;;;8.10;5.67;;;;;;;23.50;57.77;100628.77;1799881;79;21014;-45
2021/09/13 06:58:34;;;;;;;10.28;6.15;;;;;;;23.52;57.69;100633.96;1785848;79;21275;-47
2021/09/13 07:01:00;;;;;;;8.93;5.25;;;;;;;23.52;57.59;100632.57;1781558;79;21614;-48
2021/09/13 07:03:26;;;;;;;9.05;5.42;;;;;;;23.53;57.54;100632.81;1780370;79;21102;-50
2021/09/13 07:05:52;;;;;;;8.18;5.72;;;;;;;23.53;57.47;100638.37;1785122;79;21019;-46
2021/09/13 07:08:19;;;;;;;10.13;5.50;;;;;;;23.51;57.43;100637.31;1782308;79;21552;-48
2021/09/13 07:10:45;;;;;;;10.32;5.92;;;;;;;23.51;57.36;100643.44;1785324;79;21290;-47
2021/09/13 07:13:11;;;;;;;9.48;5.87;;;;;;;23.49;57.31;100641.02;1782513;79;21046;-46
2021/09/13 07:15:37;;;;;;;9.85;5.80;;;;;;;23.48;57.31;100638.00;1784073;79;21051;-46
2021/09/13 07:18:03;;;;;;;10.10;5.60;;;;;;;23.47;57.30;100639.14;1789014;79;20888;-49
2021/09/13 07:20:29;;;;;;;8.33;5.70;;;;;;;23.45;57.27;100641.47;1785359;79;21106;-46
2021/09/13 07:22:55;;;;;;;8.65;5.45;;;;;;;23.44;57.27;100642.61;1781658;79;21255;-47
2021/09/13 07:25:22;;;;;;;8.43;5.67;;;;;;;23.43;57.27;100640.98;1784654;79;20943;-47
2021/09/13 07:27:48;;;;;;;8.73;5.15;;;;;;;23.42;57.27;100642.12;1792529;79;20876;-47
2021/09/13 07:30:14;;;;;;;8.28;6.00;;;;;;;23.41;57.24;100646.05;1787998;79;21513;-47
2021/09/13 07:32:41;;;;;;;9.70;6.60;;;;;;;23.38;57.27;100640.37;1787121;79;21084;-46
2021/09/13 07:35:09;;;;;;;9.75;5.67;;;;;;;23.38;57.27;100643.14;1783694;79;22232;-48
2021/09/13 07:37:35;;;;;;;9.33;5.25;;;;;;;23.37;57.27;100644.29;1782370;79;21014;-46
2021/09/13 07:40:02;;;;;;;7.95;5.22;;;;;;;23.36;57.28;100650.98;1785388;79;21067;-48
2021/09/13 07:42:28;;;;;;;8.70;6.05;;;;;;;23.35;57.30;100646.58;1782698;79;20984;-47
2021/09/13 07:44:54;;;;;;;9.15;5.03;;;;;;;23.32;57.29;100644.48;1780914;79;20975;-47
2021/09/13 07:47:21;;;;;;;8.20;5.30;;;;;;;23.33;57.30;100651.67;1785952;79;23352;-47
2021/09/13 07:49:47;;;;;;;7.83;4.65;;;;;;;23.31;57.32;100649.23;1789078;79;20995;-48
2021/09/13 07:52:13;;;;;;;8.75;5.20;;;;;;;23.31;57.32;100656.73;1791001;79;21001;-48
2021/09/13 07:54:39;;;;;;;8.25;4.62;;;;;;;23.32;57.32;100651.43;1788347;79;20935;-46
2021/09/13 07:57:05;;;;;;;6.20;3.87;;;;;;;23.35;57.42;100649.36;1786798;77;21560;-48
2021/09/13 07:59:31;;;;;;;6.42;4.15;;;;;;;23.38;57.52;100655.64;1779260;80;23315;-48
2021/09/13 08:01:57;;;;;;;7.70;4.47;;;;;;;23.40;57.59;100654.13;1784640;80;21003;-47
2021/09/13 08:04:24;;;;;;;8.30;4.85;;;;;;;23.42;57.62;100649.64;1782541;79;21619;-47
2021/09/13 08:06:50;;;;;;;6.35;4.47;;;;;;;23.46;57.58;100652.00;1783510;80;20948;-48
2021/09/13 08:09:16;;;;;;;5.55;4.40;;;;;;;23.47;57.53;100651.64;1785509;80;21043;-48
2021/09/13 08:11:42;;;;;;;7.05;4.58;;;;;;;23.49;57.47;100651.31;1779899;80;21359;-47
2021/09/13 08:14:08;;;;;;;6.67;5.25;;;;;;;23.50;57.39;100652.94;1787256;79;21485;-49
2021/09/13 08:16:34;;;;;;;6.17;4.50;;;;;;;23.50;57.34;100657.92;1779911;80;21236;-47
2021/09/13 08:19:01;;;;;;;8.28;4.45;;;;;;;23.50;57.27;100655.14;1779874;80;21006;-46
2021/09/13 08:21:28;;;;;;;7.53;4.95;;;;;;;23.51;57.22;100658.70;1781959;80;21086;-46
2021/09/13 08:23:55;;;;;;;8.68;5.10;;;;;;;23.50;57.18;100664.05;1784038;80;21173;-46
2021/09/13 08:26:21;;;;;;;8.58;4.95;;;;;;;23.48;57.13;100658.83;1779720;80;21082;-47
2021/09/13 08:28:47;;;;;;;5.97;4.17;;;;;;;23.47;57.10;100659.16;1785066;80;21679;-47
2021/09/13 08:31:13;;;;;;;7.80;4.28;;;;;;;23.47;57.10;100659.16;1784044;79;20939;-49
2021/09/13 08:33:39;;;;;;;7.22;4.58;;;;;;;23.46;57.06;100657.55;1787602;80;20939;-48
2021/09/13 08:36:05;;;;;;;6.67;4.83;;;;;;;23.45;57.07;100661.47;1781012;79;21252;-46
2021/09/13 08:38:31;;;;;;;8.00;4.97;;;;;;;23.42;57.04;100657.39;1783065;79;21102;-47
2021/09/13 08:40:58;;;;;;;6.47;4.30;;;;;;;23.43;57.06;100660.95;1762945;80;21107;-49
2021/09/13 08:43:24;;;;;;;6.72;4.78;;;;;;;23.42;57.04;100652.41;1783503;80;21853;-47
2021/09/13 08:53:19;;;;;;;6.85;4.25;;;;;;;23.37;57.06;100646.49;1786934;79;21460;-47
2021/09/13 08:55:45;;;;;;;8.00;4.53;;;;;;;23.37;57.05;100641.52;1784376;80;22418;-47
2021/09/13 08:58:22;;;;;;;5.95;4.05;;;;;;;23.36;57.08;100651.80;1787029;79;21047;-46
2021/09/13 09:00:42;;;;;;;6.08;4.40;;;;;;;23.34;57.08;100641.59;1787999;79;21457;-47
2021/09/13 09:03:09;;;;;;;5.20;3.87;;;;;;;23.34;57.08;100645.77;1786623;79;21043;-50
2021/09/13 09:05:46;;;;;;;8.43;4.15;;;;;;;23.32;57.10;100636.98;1793232;79;21050;-50
2021/09/13 09:08:29;;;;;;;7.90;4.67;;;;;;;23.33;57.08;100638.61;1787835;78;21102;-47
2021/09/13 09:11:00;;;;;;;6.25;4.33;;;;;;;23.33;57.09;100640.57;1787917;79;21054;-47
2021/09/13 09:13:38;;;;;;;;;;;;;;;23.31;57.11;100638.13;1791433;79;21214;-46
2021/09/13 09:16:05;;;;;;;6.70;4.00;;;;;;;23.34;57.09;100635.27;1801749;78;20204;-48
2021/09/13 09:18:45;;;;;;;7.17;3.92;;;;;;;23.34;57.15;100631.88;1794859;79;21026;-47
2021/09/13 09:21:14;;;;;;;6.37;3.87;;;;;;;23.37;57.31;100626.24;1785682;79;21011;-49
2021/09/13 09:24:01;;;;;;;6.70;3.87;;;;;;;23.42;57.38;100627.43;1788130;79;21639;-47
2021/09/13 09:26:29;;;;;;;6.85;4.08;;;;;;;23.46;57.47;100625.62;1789706;78;21478;-45
2021/09/13 09:28:56;;;;;;;7.37;3.98;;;;;;;23.51;57.47;100626.77;1771683;79;21086;-48
2021/09/13 09:31:45;;;;;;;6.20;4.53;;;;;;;23.52;57.40;100620.89;1786296;79;21445;-49
2021/09/13 09:34:17;;;;;;;5.08;3.90;;;;;;;23.54;57.32;100621.38;1791347;79;21042;-47
2021/09/13 09:37:07;;;;;;;5.62;3.98;;;;;;;23.58;57.23;100618.15;1801191;79;21069;-48
2021/09/13 09:39:48;;;;;;;5.60;4.05;;;;;;;23.60;57.15;100622.77;1793707;79;21083;-47
2021/09/13 09:42:31;;;;;;;6.92;4.20;;;;;;;23.61;57.04;100623.58;1796753;79;21123;-47
2021/09/13 09:45:00;;;;;;;5.30;3.87;;;;;;;23.60;56.97;100626.11;1769849;78;21064;-49
2021/09/13 09:47:26;;;;;;;6.53;3.80;;;;;;;23.59;56.91;100623.91;1798448;79;21074;-47
2021/09/13 09:49:55;;;;;;;4.42;3.37;;;;;;;23.58;56.85;100621.50;1784970;79;21030;-47
2021/09/13 09:52:42;;;;;;;5.85;3.92;;;;;;;23.55;56.84;100611.87;1788819;79;21194;-49
2021/09/13 09:55:17;;;;;;;6.08;4.08;;;;;;;23.55;56.81;100616.64;1793454;79;21098;-47
2021/09/13 09:58:10;;;;;;;7.85;4.30;;;;;;;23.54;56.80;100615.82;1796338;79;21039;-46
2021/09/13 10:00:32;;;;;;;5.95;3.83;;;;;;;23.53;56.79;100611.98;1740783;80;21063;-47
2021/09/13 10:02:59;;;;;;;6.03;4.25;;;;;;;23.51;56.77;100617.05;1756041;80;21017;-47
2021/09/13 10:05:28;;;;;;;5.08;3.85;;;;;;;23.50;56.79;100613.49;1754069;80;21173;-48
2021/09/13 10:07:54;;;;;;;5.65;4.25;;;;;;;23.50;56.80;100605.73;1797365;78;21171;-48
2021/09/13 10:10:24;;;;;;;5.55;3.90;;;;;;;23.49;56.79;100604.92;1794021;79;21061;-46
2021/09/13 10:12:50;;;;;;;5.33;4.00;;;;;;;23.48;56.77;100600.52;1792957;79;21639;-46
2021/09/13 10:15:16;;;;;;;5.42;4.20;;;;;;;23.48;56.77;100600.52;1792673;79;22298;-48
2021/09/13 10:17:42;;;;;;;6.08;3.65;;;;;;;23.47;56.78;100598.88;1790715;79;21755;-48
2021/09/13 10:20:10;;;;;;;5.83;4.08;;;;;;;23.48;56.79;100600.52;1795550;79;20912;-47
2021/09/13 10:22:38;;;;;;;4.95;3.72;;;;;;;23.48;56.79;100597.73;1792275;79;21054;-48
2021/09/13 10:25:06;;;;;;;4.72;3.65;;;;;;;23.47;56.79;100590.55;1795930;78;21082;-48
2021/09/13 10:27:46;;;;;;;5.12;3.90;;;;;;;23.48;56.79;100594.95;1790576;79;21062;-47
2021/09/13 10:30:23;;;;;;;5.47;3.92;;;;;;;23.49;56.79;100588.84;1799155;79;21040;-48
2021/09/13 10:32:52;;;;;;;4.45;3.42;;;;;;;23.49;56.79;100584.67;1794134;79;21119;-48
2021/09/13 10:35:20;;;;;;;5.53;3.72;;;;;;;23.50;56.78;100591.85;1790390;79;21046;-48
2021/09/13 10:37:51;;;;;;;5.90;4.05;;;;;;;23.50;56.78;100586.30;1794322;79;21057;-47
2021/09/13 10:40:32;;;;;;;5.97;3.85;;;;;;;23.51;56.77;100587.90;1790796;79;21034;-50
2021/09/13 10:42:59;;;;;;;4.87;3.65;;;;;;;23.51;56.76;100585.94;1790304;79;21079;-49
2021/09/13 10:45:39;;;;;;;4.20;3.52;;;;;;;23.53;56.75;100578.66;1791295;78;21108;-48
2021/09/13 10:48:19;;;;;;;4.85;3.85;;;;;;;23.53;56.73;100580.05;1792125;79;21085;-46
2021/09/13 10:50:52;;;;;;;5.20;3.83;;;;;;;23.53;56.72;100573.92;1789872;78;21077;-50
2021/09/13 10:53:27;;;;;;;4.90;3.15;;;;;;;23.55;56.70;100569.42;1785284;79;21071;-48
2021/09/13 10:56:22;;;;;;;4.00;3.35;;;;;;;23.56;56.70;100570.45;1789400;79;21081;-47
2021/09/13 10:58:53;;;;;;;3.55;3.10;;;;;;;23.58;56.67;100569.55;1792994;78;21460;-50
2021/09/13 11:01:27;;;;;;;4.80;3.30;;;;;;;23.59;56.62;100573.14;1787996;78;21097;-48
2021/09/13 11:04:05;;;;;;;4.47;2.95;;;;;;;23.60;56.60;100562.23;1790353;79;21030;-48
2021/09/13 11:06:41;;;;;;;4.15;2.98;;;;;;;23.61;56.55;100560.52;1788139;79;21561;-48
2021/09/13 11:09:18;;;;;;;4.12;2.87;;;;;;;23.62;56.52;100559.37;1793300;79;20951;-47
2021/09/13 11:11:46;;;;;;;4.50;3.17;;;;;;;23.64;56.49;100554.84;1797779;79;21026;-46
2021/09/13 11:14:20;;;;;;;3.95;2.85;;;;;;;23.65;56.43;100559.25;1780117;79;21053;-47
2021/09/13 11:16:48;;;;;;;4.45;3.20;;;;;;;23.66;56.38;100558.09;1798005;78;20986;-47
2021/09/13 11:19:17;;;;;;;4.17;3.00;;;;;;;23.68;56.35;100549.44;1795137;79;21485;-46
2021/09/13 11:21:47;;;;;;;4.72;3.22;;;;;;;23.69;56.34;100544.91;1797124;79;21571;-47
2021/09/13 11:24:22;;;;;;;3.30;2.85;;;;;;;23.71;56.32;100544.56;1794839;79;21117;-48
2021/09/13 11:26:55;;;;;;;5.33;3.37;;;;;;;23.72;56.29;100542.03;1787775;79;21057;-47
2021/09/13 11:29:35;;;;;;;3.60;3.17;;;;;;;23.73;56.25;100540.28;1794242;79;21090;-48
2021/09/13 11:32:07;;;;;;;3.35;2.60;;;;;;;23.73;56.21;100533.91;1796774;79;20983;-48